sensor_id;sensor_type;location;lat;lon;timestamp;P1;durP1;ratioP1;P2;durP2;ratioP2
54328;SDS011;40710;51.120;13.136;2023-11-18T00:01:37;6.70;;;6.70;;
54328;SDS011;40710;51.120;13.136;2023-11-18T00:04:02;6.38;;;6.38;;
54328;SDS011;40710;51.120;13.136;2023-11-18T00:06:27;6.38;;;6.35;;
54328;SDS011;40710;51.120;13.136;2023-11-18T00:08:52;7.03;;;7.01;;
54328;SDS011;40710;51.120;13.136;2023-11-18T00:11:16;7.91;;;7.91;;
54328;SDS011;40710;51.120;13.136;2023-11-18T00:13:42;6.35;;;6.35;;
54328;SDS011;40710;51.120;13.136;2023-11-18T00:16:08;6.73;;;6.73;;
54328;SDS011;40710;51.120;13.136;2023-11-18T00:18:36;6.17;;;6.17;;
54328;SDS011;40710;51.120;13.136;2023-11-18T00:21:00;6.38;;;6.38;;
54328;SDS011;40710;51.120;13.136;2023-11-18T00:23:25;6.47;;;6.43;;
54328;SDS011;40710;51.120;13.136;2023-11-18T00:25:50;6.95;;;6.95;;
54328;SDS011;40710;51.120;13.136;2023-11-18T00:28:16;6.84;;;6.83;;
54328;SDS011;40710;51.120;13.136;2023-11-18T00:30:43;7.37;;;7.31;;
54328;SDS011;40710;51.120;13.136;2023-11-18T00:33:08;6.92;;;6.92;;
54328;SDS011;40710;51.120;13.136;2023-11-18T00:35:32;7.05;;;7.05;;
54328;SDS011;40710;51.120;13.136;2023-11-18T00:37:58;7.59;;;7.58;;
54328;SDS011;40710;51.120;13.136;2023-11-18T00:40:23;7.20;;;7.20;;
54328;SDS011;40710;51.120;13.136;2023-11-18T00:42:47;7.21;;;7.21;;
54328;SDS011;40710;51.120;13.136;2023-11-18T00:45:12;7.51;;;7.51;;
54328;SDS011;40710;51.120;13.136;2023-11-18T00:47:36;7.14;;;7.10;;
54328;SDS011;40710;51.120;13.136;2023-11-18T00:50:01;7.61;;;7.55;;
54328;SDS011;40710;51.120;13.136;2023-11-18T00:52:26;7.32;;;7.29;;
54328;SDS011;40710;51.120;13.136;2023-11-18T00:54:51;6.74;;;6.74;;
54328;SDS011;40710;51.120;13.136;2023-11-18T00:57:15;6.59;;;6.59;;
54328;SDS011;40710;51.120;13.136;2023-11-18T00:59:41;6.83;;;6.83;;
54328;SDS011;40710;51.120;13.136;2023-11-18T01:02:07;6.86;;;6.86;;
54328;SDS011;40710;51.120;13.136;2023-11-18T01:04:32;7.15;;;7.14;;
54328;SDS011;40710;51.120;13.136;2023-11-18T01:06:57;7.19;;;7.16;;
54328;SDS011;40710;51.120;13.136;2023-11-18T01:09:22;7.64;;;7.37;;
54328;SDS011;40710;51.120;13.136;2023-11-18T01:11:46;6.77;;;6.72;;
54328;SDS011;40710;51.120;13.136;2023-11-18T01:14:11;6.89;;;6.86;;
54328;SDS011;40710;51.120;13.136;2023-11-18T01:16:35;6.60;;;6.55;;
54328;SDS011;40710;51.120;13.136;2023-11-18T01:19:00;6.41;;;6.37;;
54328;SDS011;40710;51.120;13.136;2023-11-18T01:21:25;6.40;;;6.34;;
54328;SDS011;40710;51.120;13.136;2023-11-18T01:23:49;6.38;;;6.31;;
54328;SDS011;40710;51.120;13.136;2023-11-18T01:26:14;6.39;;;6.21;;
54328;SDS011;40710;51.120;13.136;2023-11-18T01:28:40;6.19;;;5.97;;
54328;SDS011;40710;51.120;13.136;2023-11-18T01:31:09;5.66;;;5.65;;
54328;SDS011;40710;51.120;13.136;2023-11-18T01:33:34;6.55;;;6.35;;
54328;SDS011;40710;51.120;13.136;2023-11-18T01:36:01;6.74;;;6.49;;
54328;SDS011;40710;51.120;13.136;2023-11-18T01:38:25;11.69;;;11.26;;
54328;SDS011;40710;51.120;13.136;2023-11-18T01:40:50;8.30;;;7.97;;
54328;SDS011;40710;51.120;13.136;2023-11-18T01:43:14;6.63;;;6.35;;
54328;SDS011;40710;51.120;13.136;2023-11-18T01:45:40;6.82;;;6.56;;
54328;SDS011;40710;51.120;13.136;2023-11-18T01:48:06;6.66;;;6.43;;
54328;SDS011;40710;51.120;13.136;2023-11-18T01:50:33;6.33;;;6.19;;
54328;SDS011;40710;51.120;13.136;2023-11-18T01:52:58;6.63;;;6.40;;
54328;SDS011;40710;51.120;13.136;2023-11-18T01:55:24;6.49;;;6.40;;
54328;SDS011;40710;51.120;13.136;2023-11-18T01:57:49;6.70;;;6.46;;
54328;SDS011;40710;51.120;13.136;2023-11-18T02:00:15;6.91;;;6.62;;
54328;SDS011;40710;51.120;13.136;2023-11-18T02:02:41;6.88;;;6.63;;
54328;SDS011;40710;51.120;13.136;2023-11-18T02:05:07;6.85;;;6.60;;
54328;SDS011;40710;51.120;13.136;2023-11-18T02:07:32;6.68;;;6.44;;
54328;SDS011;40710;51.120;13.136;2023-11-18T02:10:00;6.41;;;6.23;;
54328;SDS011;40710;51.120;13.136;2023-11-18T02:15:37;6.98;;;6.77;;
54328;SDS011;40710;51.120;13.136;2023-11-18T02:18:04;6.98;;;6.71;;
54328;SDS011;40710;51.120;13.136;2023-11-18T02:20:34;6.80;;;6.57;;
54328;SDS011;40710;51.120;13.136;2023-11-18T02:22:59;6.84;;;6.63;;
54328;SDS011;40710;51.120;13.136;2023-11-18T02:25:25;6.41;;;6.27;;
54328;SDS011;40710;51.120;13.136;2023-11-18T02:27:52;6.48;;;6.34;;
54328;SDS011;40710;51.120;13.136;2023-11-18T02:30:17;6.55;;;6.37;;
54328;SDS011;40710;51.120;13.136;2023-11-18T02:32:45;6.47;;;6.27;;
54328;SDS011;40710;51.120;13.136;2023-11-18T02:35:23;6.58;;;6.50;;
54328;SDS011;40710;51.120;13.136;2023-11-18T02:37:52;6.67;;;6.44;;
54328;SDS011;40710;51.120;13.136;2023-11-18T02:40:23;6.53;;;6.32;;
54328;SDS011;40710;51.120;13.136;2023-11-18T02:42:57;6.62;;;6.41;;
54328;SDS011;40710;51.120;13.136;2023-11-18T02:45:24;6.61;;;6.43;;
54328;SDS011;40710;51.120;13.136;2023-11-18T02:47:49;6.50;;;6.26;;
54328;SDS011;40710;51.120;13.136;2023-11-18T02:50:13;6.58;;;6.41;;
54328;SDS011;40710;51.120;13.136;2023-11-18T02:52:39;6.79;;;6.58;;
54328;SDS011;40710;51.120;13.136;2023-11-18T02:55:05;6.55;;;6.31;;
54328;SDS011;40710;51.120;13.136;2023-11-18T02:57:32;6.79;;;6.54;;
54328;SDS011;40710;51.120;13.136;2023-11-18T02:59:57;6.68;;;6.42;;
54328;SDS011;40710;51.120;13.136;2023-11-18T03:02:24;6.68;;;6.41;;
54328;SDS011;40710;51.120;13.136;2023-11-18T03:04:51;6.46;;;6.26;;
54328;SDS011;40710;51.120;13.136;2023-11-18T03:07:16;6.82;;;6.73;;
54328;SDS011;40710;51.120;13.136;2023-11-18T03:09:40;6.64;;;6.60;;
54328;SDS011;40710;51.120;13.136;2023-11-18T03:12:06;6.70;;;6.58;;
54328;SDS011;40710;51.120;13.136;2023-11-18T03:14:32;6.86;;;6.63;;
54328;SDS011;40710;51.120;13.136;2023-11-18T03:16:58;6.68;;;6.44;;
54328;SDS011;40710;51.120;13.136;2023-11-18T03:19:22;6.88;;;6.65;;
54328;SDS011;40710;51.120;13.136;2023-11-18T03:21:53;6.86;;;6.66;;
54328;SDS011;40710;51.120;13.136;2023-11-18T03:24:17;7.13;;;6.93;;
54328;SDS011;40710;51.120;13.136;2023-11-18T03:26:42;6.77;;;6.60;;
54328;SDS011;40710;51.120;13.136;2023-11-18T03:29:06;6.98;;;6.77;;
54328;SDS011;40710;51.120;13.136;2023-11-18T03:31:31;6.69;;;6.52;;
54328;SDS011;40710;51.120;13.136;2023-11-18T03:33:56;18.35;;;17.85;;
54328;SDS011;40710;51.120;13.136;2023-11-18T03:36:20;8.77;;;8.57;;
54328;SDS011;40710;51.120;13.136;2023-11-18T03:38:45;6.21;;;6.07;;
54328;SDS011;40710;51.120;13.136;2023-11-18T03:41:10;6.52;;;6.47;;
54328;SDS011;40710;51.120;13.136;2023-11-18T03:43:36;8.88;;;8.75;;
54328;SDS011;40710;51.120;13.136;2023-11-18T03:46:01;7.56;;;7.28;;
54328;SDS011;40710;51.120;13.136;2023-11-18T03:48:26;6.32;;;6.26;;
54328;SDS011;40710;51.120;13.136;2023-11-18T03:50:51;6.10;;;6.10;;
54328;SDS011;40710;51.120;13.136;2023-11-18T03:53:15;5.59;;;5.58;;
54328;SDS011;40710;51.120;13.136;2023-11-18T03:55:40;6.02;;;6.00;;
54328;SDS011;40710;51.120;13.136;2023-11-18T03:58:04;6.50;;;6.41;;
54328;SDS011;40710;51.120;13.136;2023-11-18T04:00:29;10.25;;;9.90;;
54328;SDS011;40710;51.120;13.136;2023-11-18T04:02:53;6.71;;;6.47;;
54328;SDS011;40710;51.120;13.136;2023-11-18T04:05:18;5.58;;;5.41;;
54328;SDS011;40710;51.120;13.136;2023-11-18T04:07:43;5.32;;;5.25;;
54328;SDS011;40710;51.120;13.136;2023-11-18T04:10:08;5.69;;;5.50;;
54328;SDS011;40710;51.120;13.136;2023-11-18T04:12:34;5.24;;;5.07;;
54328;SDS011;40710;51.120;13.136;2023-11-18T04:14:59;5.43;;;5.39;;
54328;SDS011;40710;51.120;13.136;2023-11-18T04:17:23;5.35;;;5.28;;
54328;SDS011;40710;51.120;13.136;2023-11-18T04:19:52;5.19;;;5.07;;
54328;SDS011;40710;51.120;13.136;2023-11-18T04:22:19;5.31;;;5.18;;
54328;SDS011;40710;51.120;13.136;2023-11-18T04:24:44;5.61;;;5.51;;
54328;SDS011;40710;51.120;13.136;2023-11-18T04:27:09;5.11;;;5.09;;
54328;SDS011;40710;51.120;13.136;2023-11-18T04:29:34;5.23;;;5.21;;
54328;SDS011;40710;51.120;13.136;2023-11-18T04:32:00;5.35;;;5.30;;
54328;SDS011;40710;51.120;13.136;2023-11-18T04:34:25;5.53;;;5.51;;
54328;SDS011;40710;51.120;13.136;2023-11-18T04:36:50;5.70;;;5.70;;
54328;SDS011;40710;51.120;13.136;2023-11-18T04:39:15;5.91;;;5.90;;
54328;SDS011;40710;51.120;13.136;2023-11-18T04:41:40;5.87;;;5.83;;
54328;SDS011;40710;51.120;13.136;2023-11-18T04:44:04;6.00;;;5.84;;
54328;SDS011;40710;51.120;13.136;2023-11-18T04:46:29;8.90;;;8.76;;
54328;SDS011;40710;51.120;13.136;2023-11-18T04:48:53;9.72;;;9.48;;
54328;SDS011;40710;51.120;13.136;2023-11-18T04:51:18;6.29;;;6.21;;
54328;SDS011;40710;51.120;13.136;2023-11-18T04:53:43;6.38;;;6.19;;
54328;SDS011;40710;51.120;13.136;2023-11-18T04:56:09;6.62;;;6.44;;
54328;SDS011;40710;51.120;13.136;2023-11-18T04:58:34;6.70;;;6.59;;
54328;SDS011;40710;51.120;13.136;2023-11-18T05:00:59;6.65;;;6.42;;
54328;SDS011;40710;51.120;13.136;2023-11-18T05:03:23;6.64;;;6.46;;
54328;SDS011;40710;51.120;13.136;2023-11-18T05:05:48;6.39;;;6.25;;
54328;SDS011;40710;51.120;13.136;2023-11-18T05:08:20;6.48;;;6.38;;
54328;SDS011;40710;51.120;13.136;2023-11-18T05:10:48;6.28;;;6.28;;
54328;SDS011;40710;51.120;13.136;2023-11-18T05:13:14;5.97;;;5.97;;
54328;SDS011;40710;51.120;13.136;2023-11-18T05:15:40;6.53;;;6.42;;
54328;SDS011;40710;51.120;13.136;2023-11-18T05:18:05;7.07;;;6.82;;
54328;SDS011;40710;51.120;13.136;2023-11-18T05:20:32;9.88;;;9.43;;
54328;SDS011;40710;51.120;13.136;2023-11-18T05:22:57;6.84;;;6.56;;
54328;SDS011;40710;51.120;13.136;2023-11-18T05:25:21;6.60;;;6.44;;
54328;SDS011;40710;51.120;13.136;2023-11-18T05:27:46;6.41;;;6.35;;
54328;SDS011;40710;51.120;13.136;2023-11-18T05:30:11;6.50;;;6.49;;
54328;SDS011;40710;51.120;13.136;2023-11-18T05:32:36;6.84;;;6.83;;
54328;SDS011;40710;51.120;13.136;2023-11-18T05:35:01;6.30;;;6.24;;
54328;SDS011;40710;51.120;13.136;2023-11-18T05:37:29;6.92;;;6.80;;
54328;SDS011;40710;51.120;13.136;2023-11-18T05:39:53;6.64;;;6.59;;
54328;SDS011;40710;51.120;13.136;2023-11-18T05:42:23;6.73;;;6.65;;
54328;SDS011;40710;51.120;13.136;2023-11-18T05:44:49;7.68;;;7.39;;
54328;SDS011;40710;51.120;13.136;2023-11-18T05:47:21;6.96;;;6.95;;
54328;SDS011;40710;51.120;13.136;2023-11-18T05:49:46;6.76;;;6.76;;
54328;SDS011;40710;51.120;13.136;2023-11-18T05:52:11;7.22;;;7.21;;
54328;SDS011;40710;51.120;13.136;2023-11-18T05:54:36;7.41;;;7.39;;
54328;SDS011;40710;51.120;13.136;2023-11-18T05:57:00;7.86;;;7.64;;
54328;SDS011;40710;51.120;13.136;2023-11-18T05:59:25;9.00;;;8.87;;
54328;SDS011;40710;51.120;13.136;2023-11-18T06:01:51;8.66;;;8.50;;
54328;SDS011;40710;51.120;13.136;2023-11-18T06:04:15;8.65;;;8.36;;
54328;SDS011;40710;51.120;13.136;2023-11-18T06:06:40;9.04;;;8.72;;
54328;SDS011;40710;51.120;13.136;2023-11-18T06:09:04;9.24;;;8.99;;
54328;SDS011;40710;51.120;13.136;2023-11-18T06:11:33;10.07;;;9.73;;
54328;SDS011;40710;51.120;13.136;2023-11-18T06:13:59;10.08;;;9.72;;
54328;SDS011;40710;51.120;13.136;2023-11-18T06:16:24;9.96;;;9.68;;
54328;SDS011;40710;51.120;13.136;2023-11-18T06:18:50;10.58;;;10.21;;
54328;SDS011;40710;51.120;13.136;2023-11-18T06:21:19;10.09;;;9.90;;
54328;SDS011;40710;51.120;13.136;2023-11-18T06:23:48;10.32;;;10.26;;
54328;SDS011;40710;51.120;13.136;2023-11-18T06:26:13;12.74;;;12.54;;
54328;SDS011;40710;51.120;13.136;2023-11-18T06:28:42;15.22;;;14.84;;
54328;SDS011;40710;51.120;13.136;2023-11-18T06:31:10;15.40;;;14.95;;
54328;SDS011;40710;51.120;13.136;2023-11-18T06:33:36;16.59;;;16.04;;
54328;SDS011;40710;51.120;13.136;2023-11-18T06:36:01;16.26;;;15.84;;
54328;SDS011;40710;51.120;13.136;2023-11-18T06:38:26;15.99;;;15.53;;
54328;SDS011;40710;51.120;13.136;2023-11-18T06:40:50;15.39;;;15.02;;
54328;SDS011;40710;51.120;13.136;2023-11-18T06:43:16;15.70;;;15.34;;
54328;SDS011;40710;51.120;13.136;2023-11-18T06:45:43;16.91;;;16.45;;
54328;SDS011;40710;51.120;13.136;2023-11-18T06:48:07;16.96;;;16.45;;
54328;SDS011;40710;51.120;13.136;2023-11-18T06:50:32;15.49;;;15.00;;
54328;SDS011;40710;51.120;13.136;2023-11-18T06:52:58;15.00;;;14.54;;
54328;SDS011;40710;51.120;13.136;2023-11-18T06:55:25;15.47;;;14.95;;
54328;SDS011;40710;51.120;13.136;2023-11-18T06:57:51;14.18;;;13.69;;
54328;SDS011;40710;51.120;13.136;2023-11-18T07:00:16;14.00;;;13.65;;
54328;SDS011;40710;51.120;13.136;2023-11-18T07:02:40;13.22;;;12.99;;
54328;SDS011;40710;51.120;13.136;2023-11-18T07:05:05;13.77;;;13.40;;
54328;SDS011;40710;51.120;13.136;2023-11-18T07:07:30;14.88;;;14.55;;
54328;SDS011;40710;51.120;13.136;2023-11-18T07:09:54;13.98;;;13.72;;
54328;SDS011;40710;51.120;13.136;2023-11-18T07:12:19;14.20;;;13.86;;
54328;SDS011;40710;51.120;13.136;2023-11-18T07:14:44;14.40;;;14.01;;
54328;SDS011;40710;51.120;13.136;2023-11-18T07:17:12;15.08;;;14.64;;
54328;SDS011;40710;51.120;13.136;2023-11-18T07:19:36;14.30;;;13.88;;
54328;SDS011;40710;51.120;13.136;2023-11-18T07:22:01;14.21;;;13.75;;
54328;SDS011;40710;51.120;13.136;2023-11-18T07:24:26;15.13;;;14.77;;
54328;SDS011;40710;51.120;13.136;2023-11-18T07:26:51;18.26;;;17.52;;
54328;SDS011;40710;51.120;13.136;2023-11-18T07:29:16;14.98;;;14.55;;
54328;SDS011;40710;51.120;13.136;2023-11-18T07:31:41;15.20;;;14.69;;
54328;SDS011;40710;51.120;13.136;2023-11-18T07:34:07;15.91;;;15.28;;
54328;SDS011;40710;51.120;13.136;2023-11-18T07:36:32;16.45;;;15.84;;
54328;SDS011;40710;51.120;13.136;2023-11-18T07:38:57;15.93;;;15.37;;
54328;SDS011;40710;51.120;13.136;2023-11-18T07:41:22;15.34;;;14.91;;
54328;SDS011;40710;51.120;13.136;2023-11-18T07:43:51;18.41;;;17.97;;
54328;SDS011;40710;51.120;13.136;2023-11-18T07:46:18;19.19;;;18.60;;
54328;SDS011;40710;51.120;13.136;2023-11-18T07:48:46;16.73;;;16.17;;
54328;SDS011;40710;51.120;13.136;2023-11-18T07:51:10;16.30;;;15.77;;
54328;SDS011;40710;51.120;13.136;2023-11-18T07:53:36;16.26;;;15.73;;
54328;SDS011;40710;51.120;13.136;2023-11-18T07:56:02;16.01;;;15.60;;
54328;SDS011;40710;51.120;13.136;2023-11-18T07:58:27;17.48;;;17.03;;
54328;SDS011;40710;51.120;13.136;2023-11-18T08:00:52;18.47;;;17.78;;
54328;SDS011;40710;51.120;13.136;2023-11-18T08:03:16;19.18;;;18.56;;
54328;SDS011;40710;51.120;13.136;2023-11-18T08:05:42;19.13;;;18.43;;
54328;SDS011;40710;51.120;13.136;2023-11-18T08:08:08;20.29;;;19.52;;
54328;SDS011;40710;51.120;13.136;2023-11-18T08:10:34;21.51;;;20.66;;
54328;SDS011;40710;51.120;13.136;2023-11-18T08:13:02;19.69;;;19.02;;
54328;SDS011;40710;51.120;13.136;2023-11-18T08:15:26;20.89;;;19.96;;
54328;SDS011;40710;51.120;13.136;2023-11-18T08:17:53;20.27;;;19.56;;
54328;SDS011;40710;51.120;13.136;2023-11-18T08:20:18;20.23;;;19.67;;
54328;SDS011;40710;51.120;13.136;2023-11-18T08:22:45;20.04;;;19.45;;
54328;SDS011;40710;51.120;13.136;2023-11-18T08:25:10;19.69;;;18.88;;
54328;SDS011;40710;51.120;13.136;2023-11-18T08:27:36;19.17;;;18.51;;
54328;SDS011;40710;51.120;13.136;2023-11-18T08:30:01;19.11;;;18.57;;
54328;SDS011;40710;51.120;13.136;2023-11-18T08:32:31;19.21;;;18.62;;
54328;SDS011;40710;51.120;13.136;2023-11-18T08:34:55;19.33;;;18.78;;
54328;SDS011;40710;51.120;13.136;2023-11-18T08:37:20;19.56;;;18.87;;
54328;SDS011;40710;51.120;13.136;2023-11-18T08:39:45;20.33;;;19.73;;
54328;SDS011;40710;51.120;13.136;2023-11-18T08:42:10;33.80;;;32.72;;
54328;SDS011;40710;51.120;13.136;2023-11-18T08:44:34;26.70;;;25.54;;
54328;SDS011;40710;51.120;13.136;2023-11-18T08:46:59;21.49;;;20.76;;
54328;SDS011;40710;51.120;13.136;2023-11-18T08:49:23;22.37;;;21.63;;
54328;SDS011;40710;51.120;13.136;2023-11-18T08:51:49;21.42;;;20.69;;
54328;SDS011;40710;51.120;13.136;2023-11-18T08:54:20;19.76;;;19.06;;
54328;SDS011;40710;51.120;13.136;2023-11-18T08:56:49;20.05;;;19.42;;
54328;SDS011;40710;51.120;13.136;2023-11-18T08:59:20;19.00;;;18.42;;
54328;SDS011;40710;51.120;13.136;2023-11-18T09:01:52;19.61;;;18.85;;
54328;SDS011;40710;51.120;13.136;2023-11-18T09:04:23;18.11;;;17.51;;
54328;SDS011;40710;51.120;13.136;2023-11-18T09:06:49;18.59;;;18.05;;
54328;SDS011;40710;51.120;13.136;2023-11-18T09:09:18;17.66;;;17.05;;
54328;SDS011;40710;51.120;13.136;2023-11-18T09:11:50;16.17;;;15.76;;
54328;SDS011;40710;51.120;13.136;2023-11-18T09:14:15;16.64;;;16.07;;
54328;SDS011;40710;51.120;13.136;2023-11-18T09:16:43;15.80;;;15.21;;
54328;SDS011;40710;51.120;13.136;2023-11-18T09:19:08;15.26;;;14.57;;
54328;SDS011;40710;51.120;13.136;2023-11-18T09:21:33;14.62;;;14.23;;
54328;SDS011;40710;51.120;13.136;2023-11-18T09:23:59;36.99;;;35.44;;
54328;SDS011;40710;51.120;13.136;2023-11-18T09:26:24;13.88;;;13.37;;
54328;SDS011;40710;51.120;13.136;2023-11-18T09:28:50;9.82;;;9.58;;
54328;SDS011;40710;51.120;13.136;2023-11-18T09:31:14;9.49;;;9.23;;
54328;SDS011;40710;51.120;13.136;2023-11-18T09:33:41;10.33;;;9.83;;
54328;SDS011;40710;51.120;13.136;2023-11-18T09:36:16;8.26;;;7.97;;
54328;SDS011;40710;51.120;13.136;2023-11-18T09:38:42;5.87;;;5.69;;
54328;SDS011;40710;51.120;13.136;2023-11-18T09:41:10;4.37;;;4.23;;
54328;SDS011;40710;51.120;13.136;2023-11-18T09:43:35;3.40;;;3.27;;
54328;SDS011;40710;51.120;13.136;2023-11-18T09:46:07;2.26;;;2.18;;
54328;SDS011;40710;51.120;13.136;2023-11-18T09:48:37;2.16;;;2.16;;
54328;SDS011;40710;51.120;13.136;2023-11-18T09:51:08;1.92;;;1.92;;
54328;SDS011;40710;51.120;13.136;2023-11-18T09:53:34;1.89;;;1.89;;
54328;SDS011;40710;51.120;13.136;2023-11-18T09:56:05;1.90;;;1.90;;
54328;SDS011;40710;51.120;13.136;2023-11-18T09:58:44;1.94;;;1.94;;
54328;SDS011;40710;51.120;13.136;2023-11-18T10:01:18;1.48;;;1.48;;
54328;SDS011;40710;51.120;13.136;2023-11-18T10:03:46;8.29;;;8.16;;
54328;SDS011;40710;51.120;13.136;2023-11-18T10:06:13;7.87;;;7.62;;
54328;SDS011;40710;51.120;13.136;2023-11-18T10:08:40;2.52;;;2.50;;
54328;SDS011;40710;51.120;13.136;2023-11-18T10:11:05;2.20;;;2.20;;
54328;SDS011;40710;51.120;13.136;2023-11-18T10:13:33;2.30;;;2.29;;
54328;SDS011;40710;51.120;13.136;2023-11-18T10:15:58;2.80;;;2.75;;
54328;SDS011;40710;51.120;13.136;2023-11-18T10:18:23;3.34;;;3.23;;
54328;SDS011;40710;51.120;13.136;2023-11-18T10:20:49;3.31;;;3.24;;
54328;SDS011;40710;51.120;13.136;2023-11-18T10:23:15;3.16;;;3.11;;
54328;SDS011;40710;51.120;13.136;2023-11-18T10:25:45;3.09;;;3.03;;
54328;SDS011;40710;51.120;13.136;2023-11-18T10:30:51;5.52;;;5.45;;
54328;SDS011;40710;51.120;13.136;2023-11-18T10:33:16;7.55;;;7.36;;
54328;SDS011;40710;51.120;13.136;2023-11-18T10:35:48;7.67;;;7.55;;
54328;SDS011;40710;51.120;13.136;2023-11-18T10:38:16;8.43;;;8.15;;
54328;SDS011;40710;51.120;13.136;2023-11-18T10:40:41;8.43;;;8.14;;
54328;SDS011;40710;51.120;13.136;2023-11-18T10:43:07;7.88;;;7.64;;
54328;SDS011;40710;51.120;13.136;2023-11-18T10:45:34;8.56;;;8.37;;
54328;SDS011;40710;51.120;13.136;2023-11-18T10:47:58;7.70;;;7.52;;
54328;SDS011;40710;51.120;13.136;2023-11-18T10:50:22;7.52;;;7.45;;
54328;SDS011;40710;51.120;13.136;2023-11-18T10:52:47;7.50;;;7.40;;
54328;SDS011;40710;51.120;13.136;2023-11-18T10:55:12;6.30;;;6.18;;
54328;SDS011;40710;51.120;13.136;2023-11-18T10:57:37;5.92;;;5.92;;
54328;SDS011;40710;51.120;13.136;2023-11-18T11:00:03;5.54;;;5.53;;
54328;SDS011;40710;51.120;13.136;2023-11-18T11:02:39;5.64;;;5.64;;
54328;SDS011;40710;51.120;13.136;2023-11-18T11:05:05;6.11;;;6.11;;
54328;SDS011;40710;51.120;13.136;2023-11-18T11:07:39;5.78;;;5.78;;
54328;SDS011;40710;51.120;13.136;2023-11-18T11:10:05;5.96;;;5.96;;
54328;SDS011;40710;51.120;13.136;2023-11-18T11:12:33;5.74;;;5.74;;
54328;SDS011;40710;51.120;13.136;2023-11-18T11:15:17;6.26;;;6.26;;
54328;SDS011;40710;51.120;13.136;2023-11-18T11:17:45;6.50;;;6.42;;
54328;SDS011;40710;51.120;13.136;2023-11-18T11:20:18;6.20;;;6.20;;
54328;SDS011;40710;51.120;13.136;2023-11-18T11:23:01;4.87;;;4.87;;
54328;SDS011;40710;51.120;13.136;2023-11-18T11:25:43;4.38;;;4.34;;
54328;SDS011;40710;51.120;13.136;2023-11-18T11:28:32;3.72;;;3.72;;
54328;SDS011;40710;51.120;13.136;2023-11-18T11:31:17;3.55;;;3.55;;
54328;SDS011;40710;51.120;13.136;2023-11-18T11:34:02;3.66;;;3.66;;
54328;SDS011;40710;51.120;13.136;2023-11-18T11:36:29;3.93;;;3.93;;
54328;SDS011;40710;51.120;13.136;2023-11-18T11:39:02;4.00;;;4.00;;
54328;SDS011;40710;51.120;13.136;2023-11-18T11:41:27;3.74;;;3.74;;
54328;SDS011;40710;51.120;13.136;2023-11-18T11:43:58;3.52;;;3.52;;
54328;SDS011;40710;51.120;13.136;2023-11-18T11:46:24;3.73;;;3.73;;
54328;SDS011;40710;51.120;13.136;2023-11-18T11:49:01;4.06;;;4.05;;
54328;SDS011;40710;51.120;13.136;2023-11-18T11:51:38;3.75;;;3.75;;
54328;SDS011;40710;51.120;13.136;2023-11-18T11:54:13;3.84;;;3.84;;
54328;SDS011;40710;51.120;13.136;2023-11-18T11:56:45;3.63;;;3.63;;
54328;SDS011;40710;51.120;13.136;2023-11-18T11:59:17;3.41;;;3.41;;
54328;SDS011;40710;51.120;13.136;2023-11-18T12:02:00;3.55;;;3.55;;
54328;SDS011;40710;51.120;13.136;2023-11-18T12:04:28;3.64;;;3.64;;
54328;SDS011;40710;51.120;13.136;2023-11-18T12:06:53;3.89;;;3.89;;
54328;SDS011;40710;51.120;13.136;2023-11-18T12:09:20;4.14;;;4.14;;
54328;SDS011;40710;51.120;13.136;2023-11-18T12:11:46;4.06;;;4.06;;
54328;SDS011;40710;51.120;13.136;2023-11-18T12:14:13;3.89;;;3.89;;
54328;SDS011;40710;51.120;13.136;2023-11-18T12:17:00;4.77;;;4.77;;
54328;SDS011;40710;51.120;13.136;2023-11-18T12:19:36;4.63;;;4.63;;
54328;SDS011;40710;51.120;13.136;2023-11-18T12:22:11;4.30;;;4.30;;
54328;SDS011;40710;51.120;13.136;2023-11-18T12:25:28;4.43;;;4.43;;
54328;SDS011;40710;51.120;13.136;2023-11-18T12:30:03;38.30;;;36.76;;
54328;SDS011;40710;51.120;13.136;2023-11-18T12:35:22;4.35;;;4.35;;
54328;SDS011;40710;51.120;13.136;2023-11-18T12:43:27;4.11;;;4.11;;
54328;SDS011;40710;51.120;13.136;2023-11-18T12:49:01;4.41;;;4.41;;
54328;SDS011;40710;51.120;13.136;2023-11-18T12:51:27;4.41;;;4.41;;
54328;SDS011;40710;51.120;13.136;2023-11-18T12:53:52;6.53;;;6.53;;
54328;SDS011;40710;51.120;13.136;2023-11-18T12:56:17;70.47;;;68.32;;
54328;SDS011;40710;51.120;13.136;2023-11-18T12:58:43;33.97;;;32.64;;
54328;SDS011;40710;51.120;13.136;2023-11-18T13:01:08;5.43;;;5.42;;
54328;SDS011;40710;51.120;13.136;2023-11-18T13:03:38;4.95;;;4.95;;
54328;SDS011;40710;51.120;13.136;2023-11-18T13:06:03;4.75;;;4.75;;
54328;SDS011;40710;51.120;13.136;2023-11-18T13:08:30;4.55;;;4.55;;
54328;SDS011;40710;51.120;13.136;2023-11-18T13:10:54;4.69;;;4.69;;
54328;SDS011;40710;51.120;13.136;2023-11-18T13:13:19;4.69;;;4.69;;
54328;SDS011;40710;51.120;13.136;2023-11-18T13:15:43;4.95;;;4.95;;
54328;SDS011;40710;51.120;13.136;2023-11-18T13:18:09;7.10;;;7.07;;
54328;SDS011;40710;51.120;13.136;2023-11-18T13:20:34;12.29;;;12.09;;
54328;SDS011;40710;51.120;13.136;2023-11-18T13:23:00;11.93;;;11.59;;
54328;SDS011;40710;51.120;13.136;2023-11-18T13:25:25;5.86;;;5.80;;
54328;SDS011;40710;51.120;13.136;2023-11-18T13:27:49;5.21;;;5.21;;
54328;SDS011;40710;51.120;13.136;2023-11-18T13:30:15;4.88;;;4.88;;
54328;SDS011;40710;51.120;13.136;2023-11-18T13:32:44;5.34;;;5.34;;
54328;SDS011;40710;51.120;13.136;2023-11-18T13:35:10;6.04;;;6.04;;
54328;SDS011;40710;51.120;13.136;2023-11-18T13:37:39;5.93;;;5.93;;
54328;SDS011;40710;51.120;13.136;2023-11-18T13:40:06;42.75;;;41.62;;
54328;SDS011;40710;51.120;13.136;2023-11-18T13:42:31;24.34;;;23.39;;
54328;SDS011;40710;51.120;13.136;2023-11-18T13:45:04;8.03;;;7.87;;
54328;SDS011;40710;51.120;13.136;2023-11-18T13:47:35;10.30;;;10.10;;
54328;SDS011;40710;51.120;13.136;2023-11-18T13:50:00;7.74;;;7.64;;
54328;SDS011;40710;51.120;13.136;2023-11-18T13:52:25;5.74;;;5.66;;
54328;SDS011;40710;51.120;13.136;2023-11-18T13:54:50;5.51;;;5.51;;
54328;SDS011;40710;51.120;13.136;2023-11-18T13:57:19;5.75;;;5.73;;
54328;SDS011;40710;51.120;13.136;2023-11-18T13:59:45;6.29;;;6.17;;
54328;SDS011;40710;51.120;13.136;2023-11-18T14:02:10;6.93;;;6.90;;
54328;SDS011;40710;51.120;13.136;2023-11-18T14:04:35;7.39;;;7.21;;
54328;SDS011;40710;51.120;13.136;2023-11-18T14:07:01;8.32;;;8.16;;
54328;SDS011;40710;51.120;13.136;2023-11-18T14:09:29;9.13;;;8.90;;
54328;SDS011;40710;51.120;13.136;2023-11-18T14:11:56;10.13;;;9.97;;
54328;SDS011;40710;51.120;13.136;2023-11-18T14:14:21;9.64;;;9.37;;
54328;SDS011;40710;51.120;13.136;2023-11-18T14:16:45;9.79;;;9.63;;
54328;SDS011;40710;51.120;13.136;2023-11-18T14:19:10;8.10;;;8.01;;
54328;SDS011;40710;51.120;13.136;2023-11-18T14:21:35;7.40;;;7.40;;
54328;SDS011;40710;51.120;13.136;2023-11-18T14:23:59;12.69;;;12.39;;
54328;SDS011;40710;51.120;13.136;2023-11-18T14:26:26;8.28;;;8.18;;
54328;SDS011;40710;51.120;13.136;2023-11-18T14:28:51;8.68;;;8.68;;
54328;SDS011;40710;51.120;13.136;2023-11-18T14:31:16;16.15;;;16.02;;
54328;SDS011;40710;51.120;13.136;2023-11-18T14:33:41;12.48;;;12.04;;
54328;SDS011;40710;51.120;13.136;2023-11-18T14:36:06;10.40;;;10.05;;
54328;SDS011;40710;51.120;13.136;2023-11-18T14:38:31;10.86;;;10.81;;
54328;SDS011;40710;51.120;13.136;2023-11-18T14:40:55;12.94;;;12.93;;
54328;SDS011;40710;51.120;13.136;2023-11-18T14:43:20;11.48;;;11.48;;
54328;SDS011;40710;51.120;13.136;2023-11-18T14:45:45;9.31;;;9.31;;